createdAt,value
2017-05-22T00:00:00.298Z,8.20
2017-05-22T00:02:28.621Z,7.56
2017-05-22T00:04:56.862Z,7.66
2017-05-22T00:07:25.112Z,7.68
2017-05-22T00:09:53.377Z,7.04
2017-05-22T00:12:21.610Z,8.28
2017-05-22T00:14:49.876Z,8.24
2017-05-22T00:17:18.129Z,8.18
2017-05-22T00:19:45.626Z,7.94
2017-05-22T00:22:13.860Z,7.92
2017-05-22T00:24:42.114Z,8.20
2017-05-22T00:27:10.351Z,9.22
2017-05-22T00:29:38.592Z,9.08
2017-05-22T00:32:06.863Z,8.30
2017-05-22T00:34:35.095Z,8.70
2017-05-22T00:37:03.351Z,8.00
2017-05-22T00:39:31.600Z,8.30
2017-05-22T00:41:59.838Z,8.58
2017-05-22T00:44:28.097Z,9.38
2017-05-22T00:46:56.328Z,8.94
2017-05-22T00:49:24.586Z,8.94
2017-05-22T00:51:52.814Z,9.36
2017-05-22T00:54:21.087Z,8.38
2017-05-22T00:56:49.572Z,10.24
2017-05-22T00:59:17.818Z,8.90
2017-05-22T01:01:46.077Z,9.28
2017-05-22T01:04:14.337Z,9.46
2017-05-22T01:06:42.598Z,9.46
2017-05-22T01:09:10.843Z,9.28
2017-05-22T01:11:39.129Z,9.00
2017-05-22T01:14:07.371Z,9.90
2017-05-22T01:16:35.624Z,10.46
2017-05-22T01:19:03.875Z,11.48
2017-05-22T01:21:32.118Z,10.30
2017-05-22T01:24:00.371Z,9.76
2017-05-22T01:26:28.607Z,10.86
2017-05-22T01:28:56.839Z,10.76
2017-05-22T01:31:25.101Z,11.36
2017-05-22T01:33:53.353Z,10.56
2017-05-22T01:36:21.623Z,12.34
2017-05-22T01:38:49.863Z,10.64
2017-05-22T01:41:18.107Z,12.98
2017-05-22T01:43:46.387Z,12.18
2017-05-22T01:46:14.636Z,12.60
2017-05-22T01:48:42.879Z,11.62
2017-05-22T01:51:11.124Z,11.30
2017-05-22T01:53:39.393Z,16.56
2017-05-22T01:56:07.637Z,12.42
2017-05-22T01:58:35.896Z,11.08
2017-05-22T02:01:04.147Z,11.06
2017-05-22T02:03:32.395Z,11.52
2017-05-22T02:06:00.648Z,11.68
2017-05-22T02:08:28.881Z,10.50
2017-05-22T02:10:57.145Z,11.32
2017-05-22T02:13:25.388Z,13.06
2017-05-22T02:15:53.632Z,12.02
2017-05-22T02:18:21.883Z,11.40
2017-05-22T02:20:50.136Z,12.64
2017-05-22T02:23:18.392Z,11.10
2017-05-22T02:25:46.626Z,12.68
2017-05-22T02:28:14.899Z,11.08
2017-05-22T02:30:43.148Z,11.42
2017-05-22T02:33:11.390Z,12.12
2017-05-22T02:35:39.639Z,11.74
2017-05-22T02:38:07.901Z,12.94
2017-05-22T02:40:36.156Z,11.36
2017-05-22T02:43:04.415Z,11.78
2017-05-22T02:45:32.683Z,12.38
2017-05-22T02:48:00.923Z,11.98
2017-05-22T02:50:29.164Z,11.46
2017-05-22T02:52:57.411Z,12.82
2017-05-22T02:55:25.655Z,12.20
2017-05-22T02:57:53.919Z,13.02
2017-05-22T03:00:22.163Z,11.82
2017-05-22T03:02:50.434Z,10.50
2017-05-22T03:05:18.667Z,11.70
2017-05-22T03:07:46.915Z,11.52
2017-05-22T03:10:15.164Z,11.72
2017-05-22T03:12:43.394Z,10.16
2017-05-22T03:15:11.653Z,11.16
2017-05-22T03:17:39.927Z,11.28
2017-05-22T03:20:08.167Z,10.82
2017-05-22T03:22:36.414Z,12.00
2017-05-22T03:25:04.654Z,11.64
2017-05-22T03:27:32.903Z,11.44
2017-05-22T03:30:01.164Z,14.20
2017-05-22T03:32:29.399Z,13.04
2017-05-22T03:34:57.655Z,12.36
2017-05-22T03:37:25.903Z,12.62
2017-05-22T03:39:54.155Z,12.58
2017-05-22T03:42:22.395Z,12.00
2017-05-22T03:44:50.647Z,11.68
2017-05-22T03:47:18.919Z,11.66
2017-05-22T03:49:47.169Z,11.84
2017-05-22T03:52:15.415Z,10.66
2017-05-22T03:54:43.651Z,11.32
2017-05-22T03:57:11.927Z,10.02
2017-05-22T03:59:40.180Z,11.78
2017-05-22T04:02:08.467Z,11.96
2017-05-22T04:04:36.730Z,11.64
2017-05-22T04:07:04.978Z,15.74
2017-05-22T04:09:33.231Z,10.88
2017-05-22T04:12:01.466Z,10.30
2017-05-22T04:14:29.738Z,10.64
2017-05-22T04:16:57.976Z,11.16
2017-05-22T04:19:26.211Z,8.82
2017-05-22T04:21:54.457Z,9.66
2017-05-22T04:24:22.697Z,10.72
2017-05-22T04:26:50.954Z,8.28
2017-05-22T04:29:19.205Z,8.50
2017-05-22T04:31:47.450Z,8.90
2017-05-22T04:34:15.692Z,9.16
2017-05-22T04:36:43.940Z,9.38
2017-05-22T04:39:12.184Z,9.28
2017-05-22T04:41:40.423Z,8.04
2017-05-22T04:44:08.679Z,8.72
2017-05-22T04:46:36.904Z,7.78
2017-05-22T04:49:05.159Z,7.64
2017-05-22T04:51:33.384Z,7.88
2017-05-22T04:54:01.624Z,8.06
2017-05-22T04:56:29.860Z,8.24
2017-05-22T04:58:58.101Z,8.24
2017-05-22T05:01:26.349Z,7.90
2017-05-22T05:03:54.597Z,8.10
2017-05-22T05:06:22.847Z,7.58
2017-05-22T05:08:51.075Z,7.68
2017-05-22T05:11:19.659Z,7.96
2017-05-22T05:13:47.899Z,9.70
2017-05-22T05:16:16.144Z,7.72
2017-05-22T05:18:44.416Z,8.18
2017-05-22T05:21:12.653Z,7.86
2017-05-22T05:23:40.914Z,10.30
2017-05-22T05:26:09.170Z,11.28
2017-05-22T05:28:37.412Z,17.68
2017-05-22T05:31:05.647Z,9.82
2017-05-22T05:33:33.916Z,10.96
2017-05-22T05:36:02.167Z,10.76
2017-05-22T05:38:30.801Z,9.78
2017-05-22T05:40:59.056Z,12.16
2017-05-22T05:43:27.295Z,22.48
2017-05-22T05:45:55.527Z,10.28
2017-05-22T05:48:23.786Z,9.84
2017-05-22T05:50:51.261Z,9.86
2017-05-22T05:53:19.510Z,10.88
2017-05-22T05:55:47.739Z,10.74
2017-05-22T05:58:15.987Z,9.98
2017-05-22T06:00:44.262Z,8.44
2017-05-22T06:03:12.483Z,8.72
2017-05-22T06:05:40.724Z,9.14
2017-05-22T06:08:08.968Z,10.22
2017-05-22T06:10:37.212Z,11.80
2017-05-22T06:13:05.459Z,9.10
2017-05-22T06:15:33.718Z,8.86
2017-05-22T06:18:01.951Z,8.70
2017-05-22T06:20:30.179Z,8.64
2017-05-22T06:22:58.432Z,11.26
2017-05-22T06:25:26.658Z,8.94
2017-05-22T06:27:54.903Z,7.88
2017-05-22T06:30:23.150Z,8.54
2017-05-22T06:32:51.414Z,7.34
2017-05-22T06:35:19.659Z,8.00
2017-05-22T06:37:48.092Z,7.86
2017-05-22T06:40:16.355Z,7.24
2017-05-22T06:42:44.684Z,8.42
2017-05-22T06:45:12.923Z,7.80
2017-05-22T06:47:41.153Z,8.96
2017-05-22T06:50:09.406Z,6.86
2017-05-22T06:52:37.687Z,6.54
2017-05-22T06:55:05.919Z,5.64
2017-05-22T06:57:34.156Z,7.88
2017-05-22T07:00:02.382Z,5.04
2017-05-22T07:02:30.654Z,5.98
2017-05-22T07:04:58.881Z,3.88
2017-05-22T07:07:27.139Z,4.42
2017-05-22T07:09:55.372Z,4.22
2017-05-22T07:12:23.595Z,4.66
2017-05-22T07:14:51.845Z,4.12
2017-05-22T07:17:20.070Z,4.40
2017-05-22T07:19:48.315Z,4.30
2017-05-22T07:22:16.647Z,4.72
2017-05-22T07:24:44.894Z,4.22
2017-05-22T07:27:13.123Z,4.34
2017-05-22T07:29:41.351Z,3.44
2017-05-22T07:32:09.592Z,5.22
2017-05-22T07:34:37.819Z,3.98
2017-05-22T07:37:06.053Z,4.20
2017-05-22T07:39:34.278Z,3.16
2017-05-22T07:42:02.523Z,3.76
2017-05-22T07:44:30.773Z,3.70
2017-05-22T07:46:59.017Z,5.68
2017-05-22T07:49:27.255Z,4.62
2017-05-22T07:51:55.683Z,5.20
2017-05-22T07:54:23.929Z,4.18
2017-05-22T07:56:52.227Z,4.10
2017-05-22T07:59:20.489Z,4.00
2017-05-22T08:01:48.742Z,3.80
2017-05-22T08:04:16.973Z,4.18
2017-05-22T08:06:45.220Z,3.54
2017-05-22T08:09:14.138Z,3.94
2017-05-22T08:11:43.099Z,3.50
2017-05-22T08:14:11.331Z,3.84
2017-05-22T08:16:39.596Z,3.92
2017-05-22T08:19:07.832Z,4.38
2017-05-22T08:21:36.083Z,4.78
2017-05-22T08:24:04.332Z,7.44
2017-05-22T08:26:32.572Z,3.56
2017-05-22T08:29:00.807Z,3.76
2017-05-22T08:31:29.035Z,3.34
2017-05-22T08:33:58.064Z,4.26
2017-05-22T08:36:26.291Z,3.32
2017-05-22T08:38:54.520Z,3.82
2017-05-22T08:41:22.747Z,3.32
2017-05-22T08:43:50.974Z,3.62
2017-05-22T08:46:19.225Z,3.80
2017-05-22T08:48:47.450Z,3.34
2017-05-22T08:51:15.711Z,4.44
2017-05-22T08:53:43.942Z,3.40
2017-05-22T08:56:12.159Z,3.58
2017-05-22T08:58:40.400Z,3.40
2017-05-22T09:01:08.624Z,4.80
2017-05-22T09:03:36.888Z,9.38
2017-05-22T09:06:05.119Z,4.00
2017-05-22T09:08:33.383Z,4.78
2017-05-22T09:11:01.607Z,4.00
2017-05-22T09:13:29.854Z,3.44
2017-05-22T09:15:58.087Z,3.36
2017-05-22T09:18:26.315Z,3.32
2017-05-22T09:20:54.556Z,4.86
2017-05-22T09:23:22.775Z,5.04
2017-05-22T09:25:51.031Z,3.72
2017-05-22T09:28:19.270Z,5.48
2017-05-22T09:30:47.506Z,4.14
2017-05-22T09:33:15.762Z,7.40
2017-05-22T09:35:43.986Z,3.74
2017-05-22T09:38:12.223Z,3.26
2017-05-22T09:40:40.460Z,3.42
2017-05-22T09:43:08.717Z,4.24
2017-05-22T09:45:36.961Z,2.94
2017-05-22T09:48:05.991Z,4.18
2017-05-22T09:50:34.250Z,3.30
2017-05-22T09:53:02.479Z,3.56
2017-05-22T09:55:30.716Z,3.32
2017-05-22T09:57:58.947Z,3.66
2017-05-22T10:00:27.222Z,4.10
2017-05-22T10:02:55.478Z,3.52
2017-05-22T10:05:23.699Z,3.76
2017-05-22T10:07:51.933Z,3.54
2017-05-22T10:10:20.178Z,3.40
2017-05-22T10:12:48.417Z,4.08
2017-05-22T10:15:16.639Z,3.82
2017-05-22T10:17:44.918Z,3.18
2017-05-22T10:20:13.139Z,3.30
2017-05-22T10:22:41.363Z,3.64
2017-05-22T10:25:09.619Z,4.92
2017-05-22T10:27:37.863Z,3.68
2017-05-22T10:30:06.165Z,4.20
2017-05-22T10:32:34.475Z,3.74
2017-05-22T10:35:02.747Z,3.28
2017-05-22T10:37:30.975Z,5.52
2017-05-22T10:39:59.199Z,3.78
2017-05-22T10:42:27.505Z,3.38
2017-05-22T10:44:55.736Z,3.48
2017-05-22T10:47:23.985Z,4.42
2017-05-22T10:49:53.043Z,4.88
2017-05-22T10:52:21.291Z,4.36
2017-05-22T10:54:49.544Z,3.36
2017-05-22T10:57:17.783Z,4.18
2017-05-22T10:59:46.014Z,3.60
2017-05-22T11:02:14.240Z,6.06
2017-05-22T11:04:42.489Z,4.20
2017-05-22T11:07:10.732Z,4.68
2017-05-22T11:09:39.168Z,4.82
2017-05-22T11:12:07.407Z,4.48
2017-05-22T11:14:35.649Z,4.28
2017-05-22T11:17:03.887Z,9.22
2017-05-22T11:19:32.116Z,4.38
2017-05-22T11:22:00.396Z,4.16
2017-05-22T11:24:28.636Z,4.84
2017-05-22T11:29:47.034Z,4.48
2017-05-22T11:32:15.307Z,5.12
2017-05-22T11:34:43.542Z,4.32
2017-05-22T11:37:11.772Z,4.02
2017-05-22T11:39:40.030Z,3.50
2017-05-22T11:42:07.520Z,4.06
2017-05-22T11:44:35.825Z,6.18
2017-05-22T11:47:04.053Z,3.84
2017-05-22T11:49:32.947Z,3.40
2017-05-22T11:52:01.179Z,3.38
2017-05-22T11:54:29.420Z,3.96
2017-05-22T11:56:57.674Z,5.40
2017-05-22T11:59:25.913Z,3.00
2017-05-22T12:01:54.174Z,3.66
2017-05-22T12:04:22.453Z,6.86
2017-05-22T12:06:50.703Z,3.64
2017-05-22T12:09:18.945Z,4.02
2017-05-22T12:11:47.177Z,3.66
2017-05-22T12:14:15.407Z,3.54
2017-05-22T12:16:43.639Z,3.90
2017-05-22T12:19:11.875Z,4.06
2017-05-22T12:21:40.108Z,4.12
2017-05-22T12:24:08.351Z,4.30
2017-05-22T12:26:36.578Z,5.02
2017-05-22T12:29:04.802Z,3.62
2017-05-22T12:31:33.053Z,3.52
2017-05-22T12:34:01.292Z,4.18
2017-05-22T12:36:29.542Z,3.14
2017-05-22T12:38:57.771Z,5.42
2017-05-22T12:41:26.031Z,3.80
2017-05-22T12:43:54.271Z,4.94
2017-05-22T12:46:22.503Z,4.00
2017-05-22T12:48:50.738Z,12.62
2017-05-22T12:51:18.963Z,4.52
2017-05-22T12:53:47.207Z,3.48
2017-05-22T12:56:15.438Z,3.96
2017-05-22T12:58:43.687Z,3.38
2017-05-22T13:01:11.988Z,4.56
2017-05-22T13:06:15.069Z,4.30
2017-05-22T13:08:43.323Z,4.64
2017-05-22T13:11:11.577Z,5.54
2017-05-22T13:13:39.814Z,4.06
2017-05-22T13:16:08.063Z,6.92
2017-05-22T13:18:36.303Z,11.28
2017-05-22T13:21:04.527Z,6.40
2017-05-22T13:23:32.768Z,6.00
2017-05-22T13:26:00.993Z,7.90
2017-05-22T13:28:29.231Z,4.88
2017-05-22T13:30:57.471Z,6.50
2017-05-22T13:33:25.715Z,4.06
2017-05-22T13:35:53.946Z,4.06
2017-05-22T13:38:22.189Z,5.22
2017-05-22T13:40:50.426Z,4.68
2017-05-22T13:43:18.663Z,4.30
2017-05-22T13:45:46.894Z,4.32
2017-05-22T13:48:15.136Z,4.54
2017-05-22T13:50:43.401Z,4.46
2017-05-22T13:53:11.622Z,8.46
2017-05-22T13:55:39.860Z,4.50
2017-05-22T13:58:08.095Z,4.22
2017-05-22T14:00:36.319Z,6.42
2017-05-22T14:03:04.555Z,5.02
2017-05-22T14:05:32.775Z,7.12
2017-05-22T14:08:01.035Z,4.22
2017-05-22T14:10:29.376Z,4.58
2017-05-22T14:12:57.606Z,4.40
2017-05-22T14:15:25.864Z,10.10
2017-05-22T14:17:54.101Z,6.32
2017-05-22T14:20:22.358Z,8.30
2017-05-22T14:22:50.589Z,9.36
2017-05-22T14:25:18.816Z,5.28
2017-05-22T14:27:47.104Z,4.06
2017-05-22T14:30:15.348Z,3.74
2017-05-22T14:32:43.599Z,4.30
2017-05-22T14:35:11.839Z,9.72
2017-05-22T14:37:40.078Z,8.36
2017-05-22T14:40:08.323Z,3.92
2017-05-22T14:42:36.558Z,4.50
2017-05-22T14:45:04.814Z,7.18
2017-05-22T14:47:33.049Z,12.00
2017-05-22T14:50:01.287Z,6.06
2017-05-22T14:52:29.506Z,4.08
2017-05-22T14:54:57.731Z,4.10
2017-05-22T14:57:26.078Z,4.28
2017-05-22T14:59:54.305Z,4.00
2017-05-22T15:02:22.678Z,4.50
2017-05-22T15:04:50.914Z,4.54
2017-05-22T15:07:19.171Z,5.62
2017-05-22T15:09:47.418Z,5.34
2017-05-22T15:12:15.639Z,5.40
2017-05-22T15:14:43.875Z,4.70
2017-05-22T15:17:12.116Z,5.30
2017-05-22T15:19:40.351Z,3.80
2017-05-22T15:22:08.571Z,4.10
2017-05-22T15:24:37.077Z,4.26
2017-05-22T15:27:05.308Z,4.06
2017-05-22T15:29:33.531Z,4.02
2017-05-22T15:32:01.771Z,4.38
2017-05-22T15:34:30.002Z,3.92
2017-05-22T15:36:58.236Z,4.94
2017-05-22T15:39:26.467Z,4.68
2017-05-22T15:41:54.717Z,14.50
2017-05-22T15:44:23.020Z,6.16
2017-05-22T15:46:51.250Z,5.08
2017-05-22T15:49:19.492Z,4.10
2017-05-22T15:51:47.723Z,4.96
2017-05-22T15:54:15.967Z,4.40
2017-05-22T15:56:44.194Z,7.26
2017-05-22T15:59:12.491Z,5.02
2017-05-22T16:01:40.714Z,4.70
2017-05-22T16:04:08.978Z,3.94
2017-05-22T16:06:37.203Z,4.32
2017-05-22T16:09:05.446Z,4.26
2017-05-22T16:11:33.680Z,6.08
2017-05-22T16:14:01.918Z,4.66
2017-05-22T16:16:30.142Z,5.62
2017-05-22T16:18:58.370Z,8.92
2017-05-22T16:21:26.607Z,7.46
2017-05-22T16:23:54.860Z,4.12
2017-05-22T16:26:23.107Z,4.46
2017-05-22T16:28:51.353Z,4.26
2017-05-22T16:31:19.592Z,5.14
2017-05-22T16:33:47.816Z,4.56
2017-05-22T16:36:16.063Z,4.84
2017-05-22T16:38:44.287Z,4.92
2017-05-22T16:41:12.562Z,5.70
2017-05-22T16:43:40.891Z,6.62
2017-05-22T16:46:09.123Z,4.34
2017-05-22T16:48:37.363Z,5.20
2017-05-22T16:51:05.591Z,4.52
2017-05-22T16:53:33.832Z,5.52
2017-05-22T16:56:02.074Z,5.06
2017-05-22T16:58:30.319Z,4.34
2017-05-22T17:00:58.597Z,4.20
2017-05-22T17:03:26.852Z,4.88
2017-05-22T17:05:55.083Z,4.54
2017-05-22T17:08:23.316Z,3.98
2017-05-22T17:10:51.566Z,4.24
2017-05-22T17:13:19.813Z,4.50
2017-05-22T17:15:48.064Z,4.30
2017-05-22T17:18:16.286Z,5.16
2017-05-22T17:20:44.519Z,4.86
2017-05-22T17:23:12.769Z,5.16
2017-05-22T17:25:40.995Z,4.40
2017-05-22T17:28:09.227Z,4.60
2017-05-22T17:30:37.455Z,4.24
2017-05-22T17:33:05.707Z,4.66
2017-05-22T17:35:33.931Z,4.62
2017-05-22T17:38:02.171Z,4.62
2017-05-22T17:40:30.403Z,4.56
2017-05-22T17:42:58.632Z,4.88
2017-05-22T17:45:26.878Z,5.78
2017-05-22T17:47:55.132Z,4.38
2017-05-22T17:50:23.378Z,5.44
2017-05-22T17:52:51.617Z,9.68
2017-05-22T17:55:19.861Z,4.64
2017-05-22T17:57:48.110Z,5.46
2017-05-22T18:00:16.353Z,5.40
2017-05-22T18:02:44.629Z,4.68
2017-05-22T18:05:12.847Z,5.84
2017-05-22T18:07:41.095Z,5.20
2017-05-22T18:10:09.333Z,5.06
2017-05-22T18:12:37.562Z,4.62
2017-05-22T18:15:05.800Z,5.30
2017-05-22T18:17:34.041Z,5.34
2017-05-22T18:20:02.270Z,4.72
2017-05-22T18:22:30.499Z,4.96
2017-05-22T18:24:58.751Z,6.52
2017-05-22T18:27:26.989Z,4.90
2017-05-22T18:29:55.221Z,5.30
2017-05-22T18:32:23.448Z,6.90
2017-05-22T18:34:52.103Z,6.14
2017-05-22T18:37:20.354Z,5.62
2017-05-22T18:39:48.571Z,5.80
2017-05-22T18:42:16.823Z,4.62
2017-05-22T18:44:45.046Z,5.92
2017-05-22T18:47:13.290Z,5.70
2017-05-22T18:49:41.535Z,6.66
2017-05-22T18:52:09.773Z,9.64
2017-05-22T18:54:38.028Z,7.74
2017-05-22T18:57:06.359Z,5.54
2017-05-22T18:59:34.583Z,5.98
2017-05-22T19:02:02.823Z,6.66
2017-05-22T19:04:31.115Z,7.74
2017-05-22T19:06:59.377Z,12.36
2017-05-22T19:09:27.603Z,6.46
2017-05-22T19:11:55.829Z,5.74
2017-05-22T19:14:24.058Z,6.76
2017-05-22T19:16:52.286Z,7.52
2017-05-22T19:19:20.544Z,7.82
2017-05-22T19:21:48.777Z,7.98
2017-05-22T19:24:17.010Z,17.92
2017-05-22T19:26:45.242Z,8.30
2017-05-22T19:29:13.484Z,9.20
2017-05-22T19:31:41.727Z,9.00
2017-05-22T19:34:09.987Z,8.34
2017-05-22T19:36:38.211Z,8.26
2017-05-22T19:39:07.110Z,9.18
2017-05-22T19:41:35.370Z,8.98
2017-05-22T19:44:03.669Z,9.00
2017-05-22T19:46:31.909Z,10.36
2017-05-22T19:49:00.143Z,7.98
2017-05-22T19:51:28.410Z,8.40
2017-05-22T19:53:56.631Z,7.20
2017-05-22T19:56:24.893Z,8.00
2017-05-22T19:58:53.120Z,8.74
2017-05-22T20:01:21.347Z,10.30
2017-05-22T20:03:49.831Z,8.72
2017-05-22T20:06:18.050Z,9.24
2017-05-22T20:08:46.293Z,7.38
2017-05-22T20:11:14.518Z,7.60
2017-05-22T20:13:42.739Z,8.48
2017-05-22T20:16:10.992Z,12.40
2017-05-22T20:18:39.228Z,8.40
2017-05-22T20:21:07.486Z,9.54
2017-05-22T20:23:35.729Z,8.90
2017-05-22T20:26:03.969Z,8.26
2017-05-22T20:28:32.203Z,8.26
2017-05-22T20:31:00.438Z,9.54
2017-05-22T20:33:28.674Z,8.86
2017-05-22T20:35:56.907Z,11.62
2017-05-22T20:38:25.151Z,10.48
2017-05-22T20:40:53.376Z,8.48
2017-05-22T20:43:21.603Z,8.08
2017-05-22T20:45:49.839Z,8.76
2017-05-22T20:48:18.063Z,9.02
2017-05-22T20:50:46.307Z,9.14
2017-05-22T20:53:14.526Z,9.00
2017-05-22T20:55:42.783Z,13.58
2017-05-22T20:58:11.024Z,8.24
2017-05-22T21:00:39.255Z,13.66
2017-05-22T21:03:07.495Z,9.12
2017-05-22T21:05:35.806Z,9.36
2017-05-22T21:08:04.059Z,11.60
2017-05-22T21:10:32.287Z,11.26
2017-05-22T21:13:00.694Z,11.10
2017-05-22T21:15:28.919Z,10.74
2017-05-22T21:17:57.154Z,9.80
2017-05-22T21:20:26.250Z,8.78
2017-05-22T21:22:54.470Z,9.32
2017-05-22T21:25:22.730Z,11.10
2017-05-22T21:27:50.965Z,11.00
2017-05-22T21:30:19.245Z,11.74
2017-05-22T21:32:47.471Z,10.76
2017-05-22T21:35:15.755Z,9.08
2017-05-22T21:37:44.056Z,10.06
2017-05-22T21:40:12.299Z,9.68
2017-05-22T21:42:40.535Z,8.78
2017-05-22T21:45:09.077Z,9.70
2017-05-22T21:47:37.324Z,10.48
2017-05-22T21:50:05.675Z,9.62
2017-05-22T21:52:33.903Z,9.14
2017-05-22T21:55:02.175Z,13.14
2017-05-22T21:57:30.414Z,9.50
2017-05-22T21:59:58.652Z,8.76
2017-05-22T22:02:26.881Z,9.14
2017-05-22T22:04:55.203Z,9.94
2017-05-22T22:07:23.485Z,10.24
2017-05-22T22:09:51.719Z,10.64
2017-05-22T22:12:20.215Z,12.10
2017-05-22T22:14:48.450Z,11.82
2017-05-22T22:17:16.704Z,12.02
2017-05-22T22:19:44.943Z,11.98
2017-05-22T22:22:13.203Z,12.32
2017-05-22T22:24:41.491Z,11.76
2017-05-22T22:27:09.717Z,10.78
2017-05-22T22:29:37.956Z,12.94
2017-05-22T22:32:06.187Z,12.40
2017-05-22T22:34:34.437Z,11.52
2017-05-22T22:37:02.679Z,12.56
2017-05-22T22:39:30.934Z,12.48
2017-05-22T22:41:59.201Z,12.10
2017-05-22T22:44:27.431Z,11.86
2017-05-22T22:46:55.689Z,12.90
2017-05-22T22:49:23.925Z,11.06
2017-05-22T22:51:52.301Z,11.36
2017-05-22T22:54:20.530Z,10.52
2017-05-22T22:56:48.819Z,10.62
2017-05-22T22:59:17.051Z,11.04
2017-05-22T23:01:45.279Z,10.92
2017-05-22T23:04:13.538Z,11.38
2017-05-22T23:06:41.785Z,10.64
2017-05-22T23:09:10.046Z,10.50
2017-05-22T23:11:38.282Z,10.56
2017-05-22T23:14:06.531Z,10.46
2017-05-22T23:16:34.767Z,10.14
2017-05-22T23:19:02.996Z,10.92
2017-05-22T23:21:31.239Z,12.18
2017-05-22T23:23:59.485Z,10.92
2017-05-22T23:26:27.734Z,10.76
2017-05-22T23:28:55.967Z,11.10
2017-05-22T23:31:24.211Z,9.32
2017-05-22T23:33:52.449Z,10.94
2017-05-22T23:36:20.702Z,10.40
2017-05-22T23:38:48.946Z,11.96
2017-05-22T23:41:17.178Z,11.60
2017-05-22T23:43:45.427Z,10.78
2017-05-22T23:46:13.669Z,11.20
2017-05-22T23:48:41.926Z,11.52
2017-05-22T23:51:10.175Z,11.28
2017-05-22T23:53:38.459Z,10.98
2017-05-22T23:56:06.698Z,11.32
2017-05-22T23:58:34.931Z,11.58
